Time;durP1;ratioP1;P1;durP2;ratioP2;P2;SDS_P1;SDS_P2;PMS_P1;PMS_P2;Temp;Humidity;BMP_temperature;BMP_pressure;BME280_temperature;BME280_humidity;BME280_pressure;Samples;Min_cycle;Max_cycle;Signal;HPM_P1;HPM_P2
2022/09/30 00:00:17;;;;;;;;;;;9.50;99.90;;;;;;4990896;28;19959;-80
2022/09/30 00:02:46;;;;;;;;;;;9.50;99.90;;;;;;5021210;28;19960;-82
2022/09/30 00:05:43;;;;;;;;;;;9.50;99.90;;;;;;4993846;28;19929;-80
2022/09/30 00:11:32;;;;;;;;;;;9.50;99.90;;;;;;5017937;28;19923;-78
2022/09/30 00:13:58;;;;;;;;;;;9.50;99.90;;;;;;5007755;28;19929;-78
2022/09/30 00:16:26;;;;;;;;;;;9.50;99.90;;;;;;5007711;28;19925;-79
2022/09/30 00:18:54;;;;;;;;;;;9.40;99.90;;;;;;5001535;28;20001;-79
2022/09/30 00:21:20;;;;;;;;;;;9.40;99.90;;;;;;5001181;28;19977;-79
2022/09/30 00:23:46;;;;;;;;;;;9.40;99.90;;;;;;5007740;28;19971;-80
2022/09/30 00:26:17;;;;;;;;;;;9.40;99.90;;;;;;5006896;28;19933;-79
2022/09/30 00:28:44;;;;;;;;;;;9.30;99.90;;;;;;5007544;28;20019;-79
2022/09/30 00:31:14;;;;;;;;;;;9.30;99.90;;;;;;4991500;28;19931;-79
2022/09/30 00:33:40;;;;;;;;;;;9.30;99.90;;;;;;4991658;28;19932;-80
2022/09/30 00:36:06;;;;;;;;;;;9.30;99.90;;;;;;5007762;28;19932;-80
2022/09/30 00:38:32;;;;;;;;;;;9.30;99.90;;;;;;4991324;28;19991;-79
2022/09/30 00:41:00;;;;;;;;;;;9.30;99.90;;;;;;4990729;28;20331;-81
2022/09/30 00:43:45;;;;;;;;;;;9.20;99.90;;;;;;4974759;28;19933;-81
2022/09/30 00:46:34;;;;;;;;;;;9.20;99.90;;;;;;5007992;28;19925;-80
2022/09/30 00:49:04;;;;;;;;;;;9.10;99.90;;;;;;5000322;28;19925;-79
2022/09/30 00:51:41;;;;;;;;;;;9.20;99.90;;;;;;5006474;28;20396;-80
2022/09/30 00:54:16;;;;;;;;;;;9.10;99.90;;;;;;5015649;28;19936;-79
2022/09/30 00:56:44;;;;;;;;;;;9.20;99.90;;;;;;5005976;28;19976;-79
2022/09/30 00:59:23;;;;;;;;;;;9.20;99.90;;;;;;5007574;28;19925;-79
2022/09/30 01:01:48;;;;;;;;;;;9.20;99.90;;;;;;5007297;28;19932;-79
2022/09/30 01:04:16;;;;;;;;;;;9.20;99.90;;;;;;5007736;28;20364;-79
2022/09/30 01:06:42;;;;;;;;;;;9.20;99.90;;;;;;5000779;28;19940;-79
2022/09/30 01:09:09;;;;;;;;;;;9.20;99.90;;;;;;5006541;28;19932;-80
2022/09/30 01:11:35;;;;;;;;;;;9.20;99.90;;;;;;4993881;28;19933;-80
2022/09/30 01:14:11;;;;;;;;;;;9.20;99.90;;;;;;4990584;28;19925;-80
2022/09/30 01:16:40;;;;;;;;;;;9.20;99.90;;;;;;5007830;28;20036;-79
2022/09/30 01:19:12;;;;;;;;;;;9.20;99.90;;;;;;4991080;28;19929;-79
2022/09/30 01:21:57;;;;;;;;;;;9.10;99.90;;;;;;5003281;28;20250;-79
2022/09/30 01:24:22;;;;;;;;;;;9.10;99.90;;;;;;5007240;28;19929;-80
2022/09/30 01:27:07;;;;;;;;;;;9.00;99.90;;;;;;5006146;28;19948;-79
2022/09/30 01:29:53;;;;;;;;;;;9.00;99.90;;;;;;5024206;28;19929;-80
2022/09/30 01:32:37;;;;;;;;;;;9.00;99.90;;;;;;5005534;28;19944;-81
2022/09/30 01:35:12;;;;;;;;;;;9.00;99.90;;;;;;5020711;28;19971;-81
2022/09/30 01:37:39;;;;;;;;;;;9.00;99.90;;;;;;5007093;28;19968;-81
2022/09/30 01:40:29;;;;;;;;;;;9.00;99.90;;;;;;4989513;28;19929;-80
2022/09/30 01:43:01;;;;;;;;;;;9.00;99.90;;;;;;5010121;28;20402;-80
2022/09/30 01:45:36;;;;;;;;;;;9.00;99.90;;;;;;5019237;28;20312;-80
2022/09/30 01:48:02;;;;;;;;;;;8.90;99.90;;;;;;5005615;28;20501;-80
2022/09/30 01:50:46;;;;;;;;;;;9.00;99.90;;;;;;5014951;28;19929;-82
2022/09/30 01:53:27;;;;;;;;;;;8.90;99.90;;;;;;5007249;28;19932;-80
2022/09/30 01:56:00;;;;;;;;;;;8.80;99.90;;;;;;5006359;28;20327;-81
2022/09/30 01:58:29;;;;;;;;;;;8.70;99.90;;;;;;5015757;28;20024;-81
2022/09/30 02:00:58;;;;;;;;;;;8.70;99.90;;;;;;5022069;28;20016;-81
2022/09/30 02:03:32;;;;;;;;;;;8.70;99.90;;;;;;4995377;28;20016;-80
2022/09/30 02:11:58;;;;;;;;;;;8.50;99.90;;;;;;4985214;28;19929;-81
2022/09/30 02:14:30;;;;;;;;;;;8.40;99.90;;;;;;4977462;28;19926;-81
2022/09/30 02:17:08;;;;;;;;;;;8.40;99.90;;;;;;4972110;28;19933;-81
2022/09/30 02:19:39;;;;;;;;;;;8.40;99.90;;;;;;4966237;28;19984;-82
2022/09/30 02:22:08;;;;;;;;;;;8.30;99.90;;;;;;4986581;28;19926;-81
2022/09/30 02:24:37;;;;;;;;;;;8.20;99.90;;;;;;4987119;28;19933;-80
2022/09/30 02:27:03;;;;;;;;;;;;;;;;;;4954677;28;20052;-82
2022/09/30 02:29:33;;;;;;;;;;;8.20;99.90;;;;;;4970797;28;20036;-81
2022/09/30 02:32:01;;;;;;;;;;;8.20;99.90;;;;;;4971186;28;20353;-80
2022/09/30 02:34:38;;;;;;;;;;;7.80;99.90;;;;;;4970675;28;19930;-81
2022/09/30 02:37:10;;;;;;;;;;;8.10;99.90;;;;;;4964903;28;19934;-81
2022/09/30 02:39:35;;;;;;;;;;;8.00;99.90;;;;;;4970917;28;20323;-81
2022/09/30 02:42:17;;;;;;;;;;;8.00;99.90;;;;;;4985849;28;20549;-81
2022/09/30 02:44:42;;;;;;;;;;;8.00;99.90;;;;;;4983126;28;20731;-82
2022/09/30 02:47:15;;;;;;;;;;;8.00;99.90;;;;;;4988706;28;19926;-81
2022/09/30 02:49:53;;;;;;;;;;;8.10;99.90;;;;;;4972231;28;19922;-86
2022/09/30 02:52:48;;;;;;;;;;;8.10;99.90;;;;;;4954992;28;19969;-84
2022/09/30 02:55:20;;;;;;;;;;;8.10;99.90;;;;;;4949590;28;19930;-83
2022/09/30 02:58:04;;;;;;;;;;;8.10;99.90;;;;;;4968165;28;19928;-83
2022/09/30 03:00:30;;;;;;;;;;;8.10;99.90;;;;;;4972689;28;19934;-82
2022/09/30 03:02:58;;;;;;;;;;;8.10;99.90;;;;;;4986558;28;20372;-83
2022/09/30 03:05:24;;;;;;;;;;;8.10;99.90;;;;;;4987013;28;19926;-81
2022/09/30 03:07:52;;;;;;;;;;;8.10;99.90;;;;;;4954912;28;20597;-82
2022/09/30 03:10:18;;;;;;;;;;;8.20;99.90;;;;;;4979858;28;20598;-81
2022/09/30 03:12:44;;;;;;;;;;;8.20;99.90;;;;;;4993562;28;20458;-82
2022/09/30 03:15:29;;;;;;;;;;;8.20;99.90;;;;;;4989485;28;20692;-81
2022/09/30 03:18:04;;;;;;;;;;;8.10;99.90;;;;;;4974972;28;20477;-82
2022/09/30 03:20:34;;;;;;;;;;;8.20;99.90;;;;;;4963682;28;19973;-81
2022/09/30 03:23:13;;;;;;;;;;;8.10;99.90;;;;;;4975257;28;20430;-82
2022/09/30 03:25:42;;;;;;;;;;;8.10;99.90;;;;;;4972829;28;19981;-82
2022/09/30 03:28:14;;;;;;;;;;;8.10;99.90;;;;;;4978513;28;19988;-83
2022/09/30 03:30:48;;;;;;;;;;;8.10;99.90;;;;;;4988804;28;19936;-83
2022/09/30 03:33:23;;;;;;;;;;;8.10;99.90;;;;;;4990181;28;20020;-81
2022/09/30 03:35:49;;;;;;;;;;;8.10;99.90;;;;;;4989834;28;19956;-82
2022/09/30 03:38:28;;;;;;;;;;;8.10;99.90;;;;;;4994278;28;20392;-83
2022/09/30 03:41:14;;;;;;;;;;;8.00;99.90;;;;;;4990303;28;19973;-83
2022/09/30 03:43:46;;;;;;;;;;;7.90;99.90;;;;;;5011306;28;20016;-81
2022/09/30 03:46:30;;;;;;;;;;;7.80;99.90;;;;;;4990413;28;19929;-82
2022/09/30 03:48:58;;;;;;;;;;;7.70;99.90;;;;;;4996301;28;19926;-81
2022/09/30 03:51:24;;;;;;;;;;;7.70;99.90;;;;;;4990310;28;19987;-81
2022/09/30 03:53:52;;;;;;;;;;;7.70;99.90;;;;;;4976701;28;19930;-84
2022/09/30 03:56:25;;;;;;;;;;;7.60;99.90;;;;;;4984921;28;19926;-82
2022/09/30 03:58:51;;;;;;;;;;;7.50;99.90;;;;;;4985688;28;20534;-83
2022/09/30 04:01:22;;;;;;;;;;;7.60;99.90;;;;;;4986351;28;19936;-81
2022/09/30 04:03:51;;;;;;;;;;;7.60;99.90;;;;;;4989236;28;20354;-81
2022/09/30 04:06:20;;;;;;;;;;;7.60;99.90;;;;;;4988174;28;19940;-81
2022/09/30 04:08:46;;;;;;;;;;;7.60;99.90;;;;;;4987873;28;19933;-82
2022/09/30 04:11:12;;;;;;;;;;;7.70;99.90;;;;;;5001897;28;19929;-81
2022/09/30 04:13:38;;;;;;;;;;;7.60;99.90;;;;;;4992101;28;20450;-81
2022/09/30 04:16:04;;;;;;;;;;;7.60;99.90;;;;;;5005885;28;19932;-82
2022/09/30 04:18:31;;;;;;;;;;;7.60;99.90;;;;;;4988989;28;20124;-82
2022/09/30 04:20:58;;;;;;;;;;;7.60;99.90;;;;;;4991184;28;19929;-82
2022/09/30 04:23:24;;;;;;;;;;;7.60;99.90;;;;;;4990262;28;19926;-80
2022/09/30 04:25:54;;;;;;;;;;;7.60;99.90;;;;;;4988263;28;19934;-82
2022/09/30 04:28:21;;;;;;;;;;;7.60;99.90;;;;;;4977723;28;19929;-82
2022/09/30 04:30:47;;;;;;;;;;;7.50;99.90;;;;;;4999110;28;20327;-79
2022/09/30 04:33:13;;;;;;;;;;;7.50;99.90;;;;;;5005478;28;19933;-81
2022/09/30 04:35:39;;;;;;;;;;;7.40;99.90;;;;;;4967354;28;19936;-83
2022/09/30 04:38:07;;;;;;;;;;;7.40;99.90;;;;;;5006066;28;19988;-84
2022/09/30 04:40:39;;;;;;;;;;;7.40;99.90;;;;;;4994162;28;19926;-80
2022/09/30 04:43:05;;;;;;;;;;;6.60;99.90;;;;;;4990066;28;19926;-82
2022/09/30 04:45:31;;;;;;;;;;;7.30;99.90;;;;;;5008822;28;20488;-81
2022/09/30 04:47:56;;;;;;;;;;;7.30;99.90;;;;;;4989647;28;19988;-83
2022/09/30 04:50:22;;;;;;;;;;;7.30;99.90;;;;;;4975774;28;19999;-80
2022/09/30 04:52:48;;;;;;;;;;;7.20;99.90;;;;;;4957167;28;20407;-81
2022/09/30 04:55:16;;;;;;;;;;;7.20;99.90;;;;;;4964292;28;19925;-81
2022/09/30 04:57:43;;;;;;;;;;;7.20;99.90;;;;;;5004274;28;19980;-82
2022/09/30 05:00:10;;;;;;;;;;;7.20;99.90;;;;;;4984614;28;19925;-81
2022/09/30 05:05:54;;;;;;;;;;;7.20;99.90;;;;;;4963270;28;19933;-82
2022/09/30 05:08:34;;;;;;;;;;;7.30;99.90;;;;;;4954828;28;19927;-81
2022/09/30 05:11:19;;;;;;;;;;;8.40;99.90;;;;;;4973938;28;19934;-81
2022/09/30 05:13:46;;;;;;;;;;;7.50;99.90;;;;;;4961993;28;19937;-79
2022/09/30 05:16:12;;;;;;;;;;;7.40;99.90;;;;;;5536896;23;20421;-81
2022/09/30 05:18:39;;;;;;;;;;;7.40;99.90;;;;;;4997915;28;20030;-79
2022/09/30 05:21:05;;;;;;;;;;;7.40;99.90;;;;;;4991114;28;19940;-80
2022/09/30 05:23:31;;;;;;;;;;;7.40;99.90;;;;;;5000302;28;19941;-84
2022/09/30 05:25:58;;;;;;;;;;;7.40;99.90;;;;;;4997678;28;19940;-82
2022/09/30 05:28:24;;;;;;;;;;;7.40;99.90;;;;;;5011626;28;20494;-79
2022/09/30 05:30:58;;;;;;;;;;;7.40;99.90;;;;;;5024789;28;20443;-82
2022/09/30 05:33:25;;;;;;;;;;;7.30;99.90;;;;;;4988362;28;19963;-83
2022/09/30 05:35:57;;;;;;;;;;;7.10;99.90;;;;;;5001436;28;20552;-80
2022/09/30 05:38:23;;;;;;;;;;;7.40;99.90;;;;;;4998459;28;20398;-80
2022/09/30 05:43:24;;;;;;;;;;;7.40;99.90;;;;;;5073964;22;19928;-81
2022/09/30 05:45:54;;;;;;;;;;;7.40;99.90;;;;;;5030510;28;19955;-78
2022/09/30 05:48:20;;;;;;;;;;;7.40;99.90;;;;;;5028766;28;19960;-80
2022/09/30 05:50:49;;;;;;;;;;;7.40;99.90;;;;;;5040275;28;20367;-79
2022/09/30 05:53:17;;;;;;;;;;;7.40;99.90;;;;;;5028191;28;19935;-81
2022/09/30 05:55:46;;;;;;;;;;;7.40;99.90;;;;;;5044648;28;19935;-84
2022/09/30 05:58:13;;;;;;;;;;;7.40;99.90;;;;;;5044540;28;19950;-80
2022/09/30 06:00:43;;;;;;;;;;;7.40;99.90;;;;;;5047072;28;20007;-80
2022/09/30 06:03:09;;;;;;;;;;;7.40;99.90;;;;;;5054107;28;19932;-80
2022/09/30 06:05:35;;;;;;;;;;;7.50;99.90;;;;;;5022684;28;20011;-80
2022/09/30 06:08:02;;;;;;;;;;;7.50;99.90;;;;;;5028398;28;19925;-81
2022/09/30 06:10:28;;;;;;;;;;;7.50;99.90;;;;;;5049886;28;19998;-81
2022/09/30 06:13:13;;;;;;;;;;;7.50;99.90;;;;;;5039838;28;19957;-80
2022/09/30 06:15:40;;;;;;;;;;;7.50;99.90;;;;;;5045636;28;20441;-81
2022/09/30 06:18:06;;;;;;;;;;;7.50;99.90;;;;;;5045847;28;19924;-80
2022/09/30 06:20:32;;;;;;;;;;;7.50;99.90;;;;;;5029213;28;19929;-82
2022/09/30 06:23:01;;;;;;;;;;;7.60;99.90;;;;;;5030897;28;19925;-84
2022/09/30 06:25:30;;;;;;;;;;;7.60;99.90;;;;;;5041947;28;19925;-83
2022/09/30 06:27:56;;;;;;;;;;;7.70;99.90;;;;;;5043441;28;20023;-83
2022/09/30 06:30:22;;;;;;;;;;;7.80;99.90;;;;;;5042041;28;20044;-82
2022/09/30 06:32:50;;;;;;;;;;;7.90;99.90;;;;;;5027822;28;19949;-81
2022/09/30 06:35:18;;;;;;;;;;;7.90;99.90;;;;;;5011482;28;19964;-81
2022/09/30 06:37:44;;;;;;;;;;;8.00;99.90;;;;;;5027720;28;19970;-81
2022/09/30 06:40:10;;;;;;;;;;;8.10;99.90;;;;;;5027805;28;19955;-82
2022/09/30 06:49:33;;;;;;;;;;;8.40;99.90;;;;;;4963613;28;20539;-83
2022/09/30 06:52:23;;;;;;;;;;;8.70;99.90;;;;;;4934449;28;19926;-80
2022/09/30 06:54:50;;;;;;;;;;;8.70;99.90;;;;;;4934861;28;19966;-82
2022/09/30 06:58:29;;;;;;;;;;;8.70;99.90;;;;;;4929791;28;19979;-83
2022/09/30 07:00:55;;;;;;;;;;;;;;;;;;4957133;28;20029;-81
2022/09/30 07:03:21;;;;;;;;;;;;;;;;;;4991724;28;19925;-83
2022/09/30 07:05:47;;;;;;;;;;;;;;;;;;5043322;28;19929;-80
2022/09/30 07:08:13;;;;;;;;;;;;;;;;;;5031434;28;20069;-81
2022/09/30 07:10:40;;;;;;;;;;;9.40;99.90;;;;;;5021572;28;19932;-81
2022/09/30 07:13:07;;;;;;;;;;;9.40;99.90;;;;;;5046457;28;19936;-81
2022/09/30 07:15:32;;;;;;;;;;;9.40;99.90;;;;;;5029978;28;19996;-81
2022/09/30 07:18:00;;;;;;;;;;;9.60;99.90;;;;;;5007040;28;20011;-80
2022/09/30 07:20:27;;;;;;;;;;;10.00;99.90;;;;;;5031898;28;20007;-82
2022/09/30 07:22:54;;;;;;;;;;;10.30;99.90;;;;;;5031802;28;19939;-79
2022/09/30 07:25:38;;;;;;;;;;;;;;;;;;5022359;28;20452;-79
2022/09/30 07:28:04;;;;;;;;;;;10.90;99.90;;;;;;5024900;28;19932;-80
2022/09/30 07:30:30;;;;;;;;;;;10.90;99.90;;;;;;5014610;28;19924;-81
2022/09/30 07:32:56;;;;;;;;;;;10.90;99.90;;;;;;5025258;28;20209;-81
2022/09/30 07:35:22;;;;;;;;;;;11.00;99.90;;;;;;5031270;28;19932;-80
2022/09/30 07:37:49;;;;;;;;;;;11.00;99.90;;;;;;5026391;28;20051;-80
2022/09/30 07:40:15;;;;;;;;;;;11.10;99.90;;;;;;5011291;28;19935;-80
2022/09/30 07:42:43;;;;;;;;;;;11.20;99.90;;;;;;5031414;28;19924;-80
2022/09/30 07:45:09;;;;;;;;;;;11.30;99.90;;;;;;5009404;28;19975;-84
2022/09/30 07:47:35;;;;;;;;;;;11.40;99.90;;;;;;5033310;28;19925;-77
2022/09/30 07:50:01;;;;;;;;;;;12.10;99.90;;;;;;5043612;28;20098;-77
2022/09/30 07:52:27;;;;;;;;;;;11.60;99.90;;;;;;5042369;28;20059;-76
2022/09/30 07:54:53;;;;;;;;;;;11.70;99.90;;;;;;5023640;28;20024;-76
2022/09/30 07:57:20;;;;;;;;;;;12.00;99.90;;;;;;5019811;28;19929;-77
2022/09/30 07:59:46;;;;;;;;;;;;;;;;;;5036560;28;20391;-76
2022/09/30 08:02:12;;;;;;;;;;;;;;;;;;5039847;28;19967;-79
2022/09/30 08:04:38;;;;;;;;;;;;;;;;;;5043335;28;19940;-79
2022/09/30 08:07:04;;;;;;;;;;;;;;;;;;5034274;28;19931;-75
2022/09/30 08:09:30;;;;;;;;;;;12.80;99.90;;;;;;5028770;28;19925;-75
2022/09/30 08:11:56;;;;;;;;;;;12.90;99.90;;;;;;5040010;28;19983;-78
2022/09/30 08:14:26;;;;;;;;;;;12.90;99.90;;;;;;5043324;28;20323;-78
2022/09/30 08:16:55;;;;;;;;;;;13.10;99.90;;;;;;5038789;28;20494;-78
2022/09/30 08:19:22;;;;;;;;;;;13.20;99.90;;;;;;5031023;28;20541;-76
2022/09/30 08:21:49;;;;;;;;;;;13.40;99.90;;;;;;5012109;28;20054;-77
2022/09/30 08:24:15;;;;;;;;;;;13.60;99.90;;;;;;5023778;28;20412;-77
2022/09/30 08:26:41;;;;;;;;;;;13.80;99.90;;;;;;5001396;28;19975;-77
2022/09/30 08:29:07;;;;;;;;;;;13.80;99.90;;;;;;5025789;28;19940;-82
2022/09/30 08:31:33;;;;;;;;;;;13.90;99.90;;;;;;5028611;28;19924;-77
2022/09/30 08:33:59;;;;;;;;;;;14.00;99.90;;;;;;5011990;28;19925;-77
2022/09/30 08:36:25;;;;;;;;;;;14.10;99.90;;;;;;5040534;28;20512;-79
2022/09/30 08:38:51;;;;;;;;;;;14.20;99.90;;;;;;5025327;28;19994;-78
2022/09/30 08:41:17;;;;;;;;;;;14.50;99.90;;;;;;5043079;28;19956;-76
2022/09/30 08:43:53;;;;;;;;;;;14.50;99.90;;;;;;5042680;28;20489;-78
2022/09/30 08:46:18;;;;;;;;;;;14.60;99.90;;;;;;5029143;28;19932;-76
2022/09/30 08:48:49;;;;;;;;;;;14.70;99.90;;;;;;5031108;28;19928;-82
2022/09/30 08:51:26;;;;;;;;;;;14.80;99.90;;;;;;5045019;28;19994;-79
2022/09/30 08:53:53;;;;;;;;;;;14.90;99.90;;;;;;5033249;28;19977;-79
2022/09/30 08:56:21;;;;;;;;;;;15.00;99.90;;;;;;5021610;28;19925;-76
2022/09/30 08:58:49;;;;;;;;;;;15.10;99.90;;;;;;5044985;28;20023;-82
2022/09/30 09:01:19;;;;;;;;;;;15.20;99.90;;;;;;5027988;28;19925;-78
2022/09/30 09:03:45;;;;;;;;;;;15.30;99.90;;;;;;5045115;28;19934;-77
2022/09/30 09:06:23;;;;;;;;;;;15.40;99.90;;;;;;5026446;28;19932;-77
2022/09/30 09:08:50;;;;;;;;;;;;;;;;;;5038138;28;19975;-78
2022/09/30 09:11:35;;;;;;;;;;;15.60;99.90;;;;;;5044206;28;19933;-78
2022/09/30 09:14:09;;;;;;;;;;;15.60;99.90;;;;;;5043094;28;19935;-76
2022/09/30 09:16:47;;;;;;;;;;;15.60;99.90;;;;;;5044177;28;19958;-79
2022/09/30 09:19:14;;;;;;;;;;;15.60;99.90;;;;;;5042583;28;20451;-79
2022/09/30 09:21:51;;;;;;;;;;;15.60;99.90;;;;;;5041626;28;19990;-79
2022/09/30 09:24:18;;;;;;;;;;;15.60;99.90;;;;;;5036360;28;19932;-78
2022/09/30 09:26:45;;;;;;;;;;;15.60;99.90;;;;;;5042218;28;20585;-78
2022/09/30 09:29:34;;;;;;;;;;;15.70;99.90;;;;;;5044878;28;19936;-77
2022/09/30 09:32:10;;;;;;;;;;;15.70;99.90;;;;;;5039042;28;19925;-79
2022/09/30 09:34:35;;;;;;;;;;;15.80;99.90;;;;;;5043876;28;20021;-78
2022/09/30 09:37:09;;;;;;;;;;;15.90;99.90;;;;;;5009471;28;20081;-77
2022/09/30 09:39:38;;;;;;;;;;;15.90;99.90;;;;;;5061212;28;20425;-79
2022/09/30 09:42:30;;;;;;;;;;;15.90;99.90;;;;;;5038408;28;19925;-79
2022/09/30 09:44:56;;;;;;;;;;;;;;;;;;5042918;28;20014;-81
2022/09/30 09:47:22;;;;;;;;;;;16.10;99.90;;;;;;5045375;28;20377;-80
2022/09/30 09:49:51;;;;;;;;;;;16.10;99.90;;;;;;5045282;28;19940;-79
2022/09/30 09:52:17;;;;;;;;;;;16.20;99.90;;;;;;5045268;28;20046;-80
2022/09/30 09:54:49;;;;;;;;;;;16.20;99.90;;;;;;5044711;28;19983;-78
2022/09/30 09:57:23;;;;;;;;;;;16.20;99.90;;;;;;5044714;28;20283;-78
2022/09/30 10:03:14;;;;;;;;;;;16.20;99.90;;;;;;5014702;28;19971;-80
2022/09/30 10:05:41;;;;;;;;;;;16.20;99.90;;;;;;4994280;28;19936;-79
2022/09/30 10:08:08;;;;;;;;;;;16.30;99.90;;;;;;5014205;28;20535;-79
2022/09/30 10:10:46;;;;;;;;;;;16.30;99.90;;;;;;5035542;28;20455;-81
2022/09/30 10:13:16;;;;;;;;;;;16.30;99.90;;;;;;5042468;28;19932;-79
2022/09/30 10:15:42;;;;;;;;;;;16.30;99.90;;;;;;5042993;28;20098;-79
2022/09/30 10:18:08;;;;;;;;;;;;;;;;;;5027004;28;20015;-82
2022/09/30 10:20:35;;;;;;;;;;;16.30;99.90;;;;;;5023887;28;19928;-80
2022/09/30 10:23:16;;;;;;;;;;;16.40;99.90;;;;;;5042555;28;20371;-80
2022/09/30 10:25:54;;;;;;;;;;;16.40;99.90;;;;;;5042431;28;19939;-77
2022/09/30 10:28:28;;;;;;;;;;;16.40;99.90;;;;;;5043430;28;19924;-79
2022/09/30 10:30:59;;;;;;;;;;;16.40;99.90;;;;;;5045744;28;19933;-79
2022/09/30 10:33:31;;;;;;;;;;;16.50;99.90;;;;;;5030521;28;19954;-79
2022/09/30 10:36:02;;;;;;;;;;;16.50;99.90;;;;;;5024439;28;19925;-77
2022/09/30 10:38:30;;;;;;;;;;;16.50;99.90;;;;;;5040514;28;19932;-80
2022/09/30 10:40:57;;;;;;;;;;;16.50;99.90;;;;;;5045984;28;19932;-77
2022/09/30 10:43:25;;;;;;;;;;;16.50;99.90;;;;;;5013164;28;19929;-78
2022/09/30 10:45:52;;;;;;;;;;;16.60;99.90;;;;;;5031875;28;19928;-78
2022/09/30 10:48:21;;;;;;;;;;;16.50;99.90;;;;;;5022547;28;20328;-79
2022/09/30 10:50:51;;;;;;;;;;;16.60;99.90;;;;;;4999409;28;19928;-78
2022/09/30 10:53:22;;;;;;;;;;;16.60;99.90;;;;;;4997904;28;19986;-79
2022/09/30 10:55:48;;;;;;;;;;;16.70;99.90;;;;;;5022489;28;19935;-78
2022/09/30 10:58:23;;;;;;;;;;;16.90;99.90;;;;;;5018537;28;19925;-81
2022/09/30 11:00:49;;;;;;;;;;;;;;;;;;5018997;28;20003;-78
2022/09/30 11:03:22;;;;;;;;;;;16.90;99.90;;;;;;5030396;28;19925;-79
2022/09/30 11:05:49;;;;;;;;;;;16.90;99.90;;;;;;5028216;28;19926;-78
2022/09/30 11:08:29;;;;;;;;;;;16.90;99.90;;;;;;5028828;28;19947;-79
2022/09/30 11:11:08;;;;;;;;;;;16.90;99.90;;;;;;5025516;28;19971;-77
2022/09/30 11:13:43;;;;;;;;;;;16.80;99.90;;;;;;5012411;28;19977;-79
2022/09/30 11:16:33;;;;;;;;;;;16.80;99.90;;;;;;5013862;28;19957;-78
2022/09/30 11:19:18;;;;;;;;;;;16.70;99.90;;;;;;4985196;28;19928;-77
2022/09/30 11:21:50;;;;;;;;;;;16.70;99.90;;;;;;5018070;28;20517;-79
2022/09/30 11:24:15;;;;;;;;;;;16.80;99.90;;;;;;5033481;28;19925;-78
2022/09/30 11:26:41;;;;;;;;;;;;;;;;;;5026916;28;20868;-77
2022/09/30 11:29:08;;;;;;;;;;;;;;;;;;5034159;28;19936;-77
2022/09/30 11:31:34;;;;;;;;;;;;;;;;;;5021119;28;20560;-79
2022/09/30 11:34:00;;;;;;;;;;;;;;;;;;5042510;28;20011;-79
2022/09/30 11:36:35;;;;;;;;;;;17.00;99.90;;;;;;5037897;28;19924;-77
2022/09/30 11:39:04;;;;;;;;;;;16.90;99.90;;;;;;4996728;28;20414;-79
2022/09/30 11:41:32;;;;;;;;;;;16.90;99.90;;;;;;5027114;28;19924;-78
2022/09/30 11:44:04;;;;;;;;;;;17.00;99.90;;;;;;5043040;28;20403;-78
2022/09/30 11:46:56;;;;;;;;;;;17.10;99.90;;;;;;5031447;28;19924;-78
2022/09/30 11:49:31;;;;;;;;;;;17.10;99.90;;;;;;5047567;28;19936;-78
2022/09/30 11:52:12;;;;;;;;;;;17.20;99.90;;;;;;5040250;28;19928;-77
2022/09/30 11:54:53;;;;;;;;;;;17.20;99.90;;;;;;5043826;28;19936;-78
2022/09/30 11:57:28;;;;;;;;;;;17.20;99.90;;;;;;5045961;28;20015;-77
2022/09/30 12:00:00;;;;;;;;;;;17.10;99.90;;;;;;5040143;28;19972;-78
2022/09/30 12:02:44;;;;;;;;;;;17.00;99.90;;;;;;5061289;28;19920;-77
2022/09/30 12:05:18;;;;;;;;;;;16.90;99.90;;;;;;5084901;28;20385;-77
2022/09/30 12:08:02;;;;;;;;;;;17.00;99.90;;;;;;5086869;28;19924;-78
2022/09/30 12:10:39;;;;;;;;;;;16.90;99.90;;;;;;5065779;28;19929;-79
2022/09/30 12:13:14;;;;;;;;;;;16.80;99.90;;;;;;5061021;28;19928;-77
2022/09/30 12:16:02;;;;;;;;;;;16.70;99.90;;;;;;5051225;28;19998;-80
2022/09/30 12:18:35;;;;;;;;;;;16.50;99.90;;;;;;5069167;28;20306;-77
2022/09/30 12:21:02;;;;;;;;;;;16.50;99.90;;;;;;5066197;28;19924;-77
2022/09/30 12:23:28;;;;;;;;;;;16.60;99.90;;;;;;5066053;28;19931;-78
2022/09/30 12:25:55;;;;;;;;;;;16.60;99.90;;;;;;5045293;28;19929;-78
2022/09/30 12:31:29;;;;;;;;;;;16.80;99.90;;;;;;5045825;28;20008;-80
2022/09/30 12:34:17;;;;;;;;;;;16.80;99.90;;;;;;5035677;28;19982;-79
2022/09/30 12:36:45;;;;;;;;;;;16.90;99.90;;;;;;5046364;28;19951;-79
2022/09/30 12:39:30;;;;;;;;;;;16.90;99.90;;;;;;5047074;28;19928;-79
2022/09/30 12:41:56;;;;;;;;;;;16.90;99.90;;;;;;5036913;28;19997;-79
2022/09/30 12:44:40;;;;;;;;;;;16.80;99.90;;;;;;5037917;28;19982;-80
2022/09/30 12:47:29;;;;;;;;;;;16.80;99.90;;;;;;5033060;28;19924;-79
2022/09/30 12:49:57;;;;;;;;;;;16.90;99.90;;;;;;5053752;28;19936;-79
2022/09/30 12:52:23;;;;;;;;;;;16.90;99.90;;;;;;5026778;28;19977;-77
2022/09/30 12:54:57;;;;;;;;;;;16.90;99.90;;;;;;5045407;28;19932;-79
2022/09/30 12:57:25;;;;;;;;;;;16.70;99.90;;;;;;5027941;28;19929;-79
2022/09/30 12:59:54;;;;;;;;;;;16.60;99.90;;;;;;5029250;28;20439;-78
2022/09/30 13:02:25;;;;;;;;;;;16.50;99.90;;;;;;5044062;28;19932;-79
2022/09/30 13:04:51;;;;;;;;;;;16.60;99.90;;;;;;5045613;28;20155;-77
2022/09/30 13:07:19;;;;;;;;;;;16.60;99.90;;;;;;5026670;28;19928;-78
2022/09/30 13:09:56;;;;;;;;;;;16.80;99.90;;;;;;5053892;28;19932;-79
2022/09/30 13:12:39;;;;;;;;;;;16.70;99.90;;;;;;5027455;28;20023;-80
2022/09/30 13:15:23;;;;;;;;;;;16.70;99.90;;;;;;5040228;28;20644;-79
2022/09/30 13:17:49;;;;;;;;;;;16.70;99.90;;;;;;5045686;28;19936;-79
2022/09/30 13:20:34;;;;;;;;;;;16.70;99.90;;;;;;5046524;28;19925;-81
2022/09/30 13:22:59;;;;;;;;;;;16.60;99.90;;;;;;5019742;28;20031;-78
2022/09/30 13:25:26;;;;;;;;;;;16.70;99.90;;;;;;5043139;28;20027;-79
2022/09/30 13:28:10;;;;;;;;;;;16.70;99.90;;;;;;5044257;28;20418;-79
2022/09/30 13:30:36;;;;;;;;;;;16.80;99.90;;;;;;5027180;28;19924;-78
2022/09/30 13:33:02;;;;;;;;;;;16.90;99.90;;;;;;5062440;28;19940;-77
2022/09/30 13:35:38;;;;;;;;;;;16.90;99.90;;;;;;5043249;28;19931;-81
2022/09/30 13:38:13;;;;;;;;;;;16.90;99.90;;;;;;5043494;28;20038;-78
2022/09/30 13:40:48;;;;;;;;;;;17.10;99.90;;;;;;5046965;28;19929;-78
2022/09/30 13:43:37;;;;;;;;;;;17.00;99.90;;;;;;5017624;28;19925;-79
2022/09/30 13:46:21;;;;;;;;;;;16.90;99.90;;;;;;5023996;28;19929;-78
2022/09/30 13:48:50;;;;;;;;;;;16.70;99.90;;;;;;5043586;28;19929;-79
2022/09/30 13:51:17;;;;;;;;;;;16.40;99.90;;;;;;5041359;28;19929;-77
2022/09/30 13:53:45;;;;;;;;;;;16.30;99.90;;;;;;5043237;28;20347;-84
2022/09/30 13:56:20;;;;;;;;;;;16.20;99.90;;;;;;5041539;28;19994;-78
2022/09/30 13:59:06;;;;;;;;;;;16.20;99.90;;;;;;5025556;28;19925;-79
2022/09/30 14:01:36;;;;;;;;;;;16.10;99.90;;;;;;5020345;28;19940;-79
2022/09/30 14:04:08;;;;;;;;;;;16.10;99.90;;;;;;5041100;28;19937;-79
2022/09/30 14:06:53;;;;;;;;;;;16.10;99.90;;;;;;5025388;28;20376;-79
2022/09/30 14:09:38;;;;;;;;;;;16.00;99.90;;;;;;5043439;28;19933;-79
2022/09/30 14:15:28;;;;;;;;;;;15.80;99.90;;;;;;5035806;28;20303;-78
2022/09/30 14:18:16;;;;;;;;;;;15.80;99.90;;;;;;5021082;28;20543;-78
2022/09/30 14:20:44;;;;;;;;;;;15.70;99.90;;;;;;5018153;28;19963;-77
2022/09/30 14:23:15;;;;;;;;;;;15.70;99.90;;;;;;5007970;28;19937;-78
2022/09/30 14:25:51;;;;;;;;;;;15.70;99.90;;;;;;4985621;28;19929;-79
2022/09/30 14:28:26;;;;;;;;;;;15.70;99.90;;;;;;5017221;28;19928;-79
2022/09/30 14:31:07;;;;;;;;;;;15.70;99.90;;;;;;5023919;28;19933;-77
2022/09/30 14:37:37;;;;;;;;;;;15.70;99.90;;;;;;5033138;28;19974;-81
2022/09/30 14:40:08;;;;;;;;;;;15.40;99.90;;;;;;4973895;28;19972;-77
2022/09/30 14:42:37;;;;;;;;;;;15.60;99.90;;;;;;5014204;28;20506;-81
2022/09/30 14:45:04;;;;;;;;;;;15.60;99.90;;;;;;5016668;28;20493;-78
2022/09/30 14:47:31;;;;;;;;;;;15.50;99.90;;;;;;5019185;28;19925;-78
2022/09/30 14:49:58;;;;;;;;;;;15.50;99.90;;;;;;5021193;28;20015;-79
2022/09/30 14:52:46;;;;;;;;;;;15.40;99.90;;;;;;5021174;28;20375;-78
2022/09/30 14:55:22;;;;;;;;;;;15.40;99.90;;;;;;5030628;28;19929;-80
2022/09/30 14:57:49;;;;;;;;;;;15.30;99.90;;;;;;5012255;28;20008;-76
2022/09/30 15:00:25;;;;;;;;;;;15.30;99.90;;;;;;5009621;28;19957;-80
2022/09/30 15:02:51;;;;;;;;;;;15.30;99.90;;;;;;5018587;28;20311;-77
2022/09/30 15:05:20;;;;;;;;;;;15.30;99.90;;;;;;4999269;28;20363;-77
2022/09/30 15:07:46;;;;;;;;;;;15.20;99.90;;;;;;5007331;28;19968;-78
2022/09/30 15:10:22;;;;;;;;;;;15.20;99.90;;;;;;5003701;28;20414;-80
2022/09/30 15:12:49;;;;;;;;;;;15.20;99.90;;;;;;5018126;28;19952;-78
2022/09/30 15:15:24;;;;;;;;;;;15.20;99.90;;;;;;5008392;28;20441;-77
2022/09/30 15:17:50;;;;;;;;;;;15.10;99.90;;;;;;5007863;28;20051;-77
2022/09/30 15:20:22;;;;;;;;;;;15.10;99.90;;;;;;5022238;28;19925;-77
2022/09/30 15:22:50;;;;;;;;;;;15.10;99.90;;;;;;5020599;28;19925;-79
2022/09/30 15:25:18;;;;;;;;;;;15.10;99.90;;;;;;4998740;28;20415;-75
2022/09/30 15:27:44;;;;;;;;;;;15.10;99.90;;;;;;5005460;28;20484;-77